sensor_id;sensor_type;location;lat;lon;timestamp;pressure;altitude;pressure_sealevel;temperature;humidity
77227;BME280;66234;47.642;19.144;2023-02-22T00:02:20;100294.28;;;8.64;71.92
77227;BME280;66234;47.642;19.144;2023-02-22T00:05:30;100296.88;;;8.58;72.20
77227;BME280;66234;47.642;19.144;2023-02-22T00:08:35;100305.97;;;8.63;71.56
77227;BME280;66234;47.642;19.144;2023-02-22T00:11:38;100302.91;;;8.66;71.57
77227;BME280;66234;47.642;19.144;2023-02-22T00:14:40;100299.78;;;8.63;71.88
77227;BME280;66234;47.642;19.144;2023-02-22T00:17:43;100291.81;;;8.63;71.33
77227;BME280;66234;47.642;19.144;2023-02-22T00:20:46;100291.75;;;8.56;72.06
77227;BME280;66234;47.642;19.144;2023-02-22T00:23:49;100289.47;;;8.53;71.75
77227;BME280;66234;47.642;19.144;2023-02-22T00:26:53;100296.78;;;8.45;72.26
77227;BME280;66234;47.642;19.144;2023-02-22T00:29:59;100290.22;;;8.47;72.58
77227;BME280;66234;47.642;19.144;2023-02-22T00:33:01;100285.75;;;8.48;72.40
77227;BME280;66234;47.642;19.144;2023-02-22T00:36:05;100286.41;;;8.56;72.37
77227;BME280;66234;47.642;19.144;2023-02-22T00:39:08;100287.84;;;8.59;71.76
77227;BME280;66234;47.642;19.144;2023-02-22T00:42:10;100291.94;;;8.55;72.15
77227;BME280;66234;47.642;19.144;2023-02-22T00:45:15;100296.44;;;8.54;72.31
77227;BME280;66234;47.642;19.144;2023-02-22T00:48:18;100295.63;;;8.54;72.40
77227;BME280;66234;47.642;19.144;2023-02-22T00:51:24;100296.28;;;8.62;72.08
77227;BME280;66234;47.642;19.144;2023-02-22T00:54:27;100303.91;;;8.93;70.90
77227;BME280;66234;47.642;19.144;2023-02-22T00:57:30;100300.34;;;9.13;70.23
77227;BME280;66234;47.642;19.144;2023-02-22T01:00:38;100300.63;;;9.31;69.53
77227;BME280;66234;47.642;19.144;2023-02-22T01:03:43;100300.31;;;9.47;68.52
77227;BME280;66234;47.642;19.144;2023-02-22T01:06:46;100299.91;;;9.50;68.67
77227;BME280;66234;47.642;19.144;2023-02-22T01:09:49;100295.63;;;9.49;68.86
77227;BME280;66234;47.642;19.144;2023-02-22T01:12:53;100297.03;;;9.52;68.54
77227;BME280;66234;47.642;19.144;2023-02-22T01:15:56;100302.38;;;9.52;68.27
77227;BME280;66234;47.642;19.144;2023-02-22T01:18:59;100291.09;;;9.56;68.39
77227;BME280;66234;47.642;19.144;2023-02-22T01:22:02;100294.97;;;9.47;68.46
77227;BME280;66234;47.642;19.144;2023-02-22T01:25:08;100298.50;;;9.54;68.48
77227;BME280;66234;47.642;19.144;2023-02-22T01:28:10;100300.97;;;9.56;68.35
77227;BME280;66234;47.642;19.144;2023-02-22T01:31:14;100298.09;;;9.51;68.75
77227;BME280;66234;47.642;19.144;2023-02-22T01:34:18;100289.25;;;9.50;68.57
77227;BME280;66234;47.642;19.144;2023-02-22T01:37:20;100284.56;;;9.59;68.57
77227;BME280;66234;47.642;19.144;2023-02-22T01:40:32;100298.91;;;9.58;68.32
77227;BME280;66234;47.642;19.144;2023-02-22T01:43:37;100292.38;;;9.60;68.60
77227;BME280;66234;47.642;19.144;2023-02-22T01:46:39;100283.72;;;9.58;68.23
77227;BME280;66234;47.642;19.144;2023-02-22T01:49:46;100279.44;;;9.64;68.30
77227;BME280;66234;47.642;19.144;2023-02-22T01:52:49;100281.91;;;9.65;68.41
77227;BME280;66234;47.642;19.144;2023-02-22T01:55:53;100280.03;;;9.59;68.49
77227;BME280;66234;47.642;19.144;2023-02-22T01:59:00;100288.41;;;9.50;68.91
77227;BME280;66234;47.642;19.144;2023-02-22T02:02:04;100281.41;;;9.42;68.98
77227;BME280;66234;47.642;19.144;2023-02-22T02:05:07;100291.22;;;9.35;69.46
77227;BME280;66234;47.642;19.144;2023-02-22T02:11:53;100282.75;;;9.25;70.07
77227;BME280;66234;47.642;19.144;2023-02-22T02:15:15;100280.06;;;9.19;70.26
77227;BME280;66234;47.642;19.144;2023-02-22T02:18:18;100280.44;;;9.09;70.34
77227;BME280;66234;47.642;19.144;2023-02-22T02:38:21;100278.94;;;8.73;72.67
77227;BME280;66234;47.642;19.144;2023-02-22T02:41:32;100281.59;;;8.66;72.79
77227;BME280;66234;47.642;19.144;2023-02-22T02:44:45;100269.59;;;8.56;73.18
77227;BME280;66234;47.642;19.144;2023-02-22T02:47:54;100281.84;;;8.50;73.21
77227;BME280;66234;47.642;19.144;2023-02-22T02:51:02;100281.59;;;8.45;73.34
77227;BME280;66234;47.642;19.144;2023-02-22T02:54:08;100282.09;;;8.27;74.24
77227;BME280;66234;47.642;19.144;2023-02-22T02:57:12;100279.06;;;8.37;73.83
77227;BME280;66234;47.642;19.144;2023-02-22T03:00:17;100272.41;;;8.48;73.43
77227;BME280;66234;47.642;19.144;2023-02-22T03:10:41;100275.66;;;8.71;72.53
77227;BME280;66234;47.642;19.144;2023-02-22T03:14:10;100269.34;;;8.78;72.37
77227;BME280;66234;47.642;19.144;2023-02-22T03:17:41;100278.78;;;8.81;72.37
77227;BME280;66234;47.642;19.144;2023-02-22T03:20:57;100283.28;;;8.80;72.26
77227;BME280;66234;47.642;19.144;2023-02-22T03:27:17;100285.56;;;8.77;72.89
77227;BME280;66234;47.642;19.144;2023-02-22T03:30:34;100287.13;;;8.71;72.51
77227;BME280;66234;47.642;19.144;2023-02-22T03:33:45;100290.97;;;8.62;73.17
77227;BME280;66234;47.642;19.144;2023-02-22T03:36:59;100292.72;;;8.49;73.17
77227;BME280;66234;47.642;19.144;2023-02-22T03:40:06;100296.47;;;8.33;74.14
77227;BME280;66234;47.642;19.144;2023-02-22T03:43:24;100294.47;;;8.20;74.58
77227;BME280;66234;47.642;19.144;2023-02-22T03:46:33;100300.19;;;8.17;74.95
77227;BME280;66234;47.642;19.144;2023-02-22T03:49:48;100300.75;;;8.13;75.30
77227;BME280;66234;47.642;19.144;2023-02-22T03:52:53;100296.28;;;8.20;75.32
77227;BME280;66234;47.642;19.144;2023-02-22T03:56:01;100298.47;;;8.10;75.49
77227;BME280;66234;47.642;19.144;2023-02-22T03:59:08;100300.59;;;8.00;75.91
77227;BME280;66234;47.642;19.144;2023-02-22T04:02:11;100306.69;;;7.94;76.28
77227;BME280;66234;47.642;19.144;2023-02-22T04:05:14;100308.84;;;7.84;76.56
77227;BME280;66234;47.642;19.144;2023-02-22T04:08:17;100310.41;;;7.78;77.12
77227;BME280;66234;47.642;19.144;2023-02-22T04:11:21;100306.97;;;7.63;76.88
77227;BME280;66234;47.642;19.144;2023-02-22T04:14:24;100319.38;;;7.42;77.58
77227;BME280;66234;47.642;19.144;2023-02-22T04:17:28;100306.63;;;7.23;78.92
77227;BME280;66234;47.642;19.144;2023-02-22T04:20:33;100315.06;;;7.41;78.76
77227;BME280;66234;47.642;19.144;2023-02-22T04:23:59;100316.25;;;7.38;78.56
77227;BME280;66234;47.642;19.144;2023-02-22T04:27:02;100320.13;;;7.21;79.20
77227;BME280;66234;47.642;19.144;2023-02-22T04:30:07;100324.78;;;7.05;78.83
77227;BME280;66234;47.642;19.144;2023-02-22T04:33:12;100326.34;;;7.14;79.81
77227;BME280;66234;47.642;19.144;2023-02-22T04:36:15;100322.53;;;7.16;79.80
77227;BME280;66234;47.642;19.144;2023-02-22T04:39:19;100319.13;;;7.22;79.48
77227;BME280;66234;47.642;19.144;2023-02-22T04:42:22;100323.59;;;7.22;79.02
77227;BME280;66234;47.642;19.144;2023-02-22T04:45:25;100316.91;;;7.11;79.80
77227;BME280;66234;47.642;19.144;2023-02-22T04:48:29;100312.22;;;6.99;80.39
77227;BME280;66234;47.642;19.144;2023-02-22T04:51:31;100312.84;;;6.86;80.50
77227;BME280;66234;47.642;19.144;2023-02-22T04:54:37;100313.41;;;6.82;80.03
77227;BME280;66234;47.642;19.144;2023-02-22T04:57:39;100317.94;;;6.58;80.53
77227;BME280;66234;47.642;19.144;2023-02-22T05:00:44;100315.66;;;6.33;80.97
77227;BME280;66234;47.642;19.144;2023-02-22T05:03:46;100312.91;;;6.04;81.37
77227;BME280;66234;47.642;19.144;2023-02-22T05:06:49;100316.84;;;5.85;82.28
77227;BME280;66234;47.642;19.144;2023-02-22T05:09:53;100317.19;;;5.74;82.62
77227;BME280;66234;47.642;19.144;2023-02-22T05:12:55;100332.41;;;5.80;82.95
77227;BME280;66234;47.642;19.144;2023-02-22T05:15:58;100324.63;;;5.79;83.91
77227;BME280;66234;47.642;19.144;2023-02-22T05:19:01;100334.38;;;5.56;83.21
77227;BME280;66234;47.642;19.144;2023-02-22T05:22:04;100337.22;;;5.46;83.54
77227;BME280;66234;47.642;19.144;2023-02-22T05:25:07;100338.63;;;5.65;83.34
77227;BME280;66234;47.642;19.144;2023-02-22T05:28:12;100339.84;;;5.54;83.12
77227;BME280;66234;47.642;19.144;2023-02-22T05:31:16;100347.88;;;5.38;83.65
77227;BME280;66234;47.642;19.144;2023-02-22T05:34:19;100350.56;;;5.30;84.10
77227;BME280;66234;47.642;19.144;2023-02-22T05:37:22;100355.72;;;5.16;83.93
77227;BME280;66234;47.642;19.144;2023-02-22T05:40:25;100346.31;;;4.97;84.61
77227;BME280;66234;47.642;19.144;2023-02-22T05:43:29;100357.25;;;4.94;84.43
77227;BME280;66234;47.642;19.144;2023-02-22T05:46:31;100355.97;;;4.90;84.39
77227;BME280;66234;47.642;19.144;2023-02-22T05:49:34;100367.72;;;4.79;84.77
77227;BME280;66234;47.642;19.144;2023-02-22T05:52:36;100363.75;;;4.67;84.89
77227;BME280;66234;47.642;19.144;2023-02-22T05:55:40;100376.97;;;4.67;84.99
77227;BME280;66234;47.642;19.144;2023-02-22T05:58:42;100385.59;;;4.69;84.95
77227;BME280;66234;47.642;19.144;2023-02-22T06:01:45;100391.41;;;4.73;84.97
77227;BME280;66234;47.642;19.144;2023-02-22T06:04:47;100390.41;;;4.74;85.22
77227;BME280;66234;47.642;19.144;2023-02-22T06:07:50;100399.16;;;4.90;84.32
77227;BME280;66234;47.642;19.144;2023-02-22T06:10:53;100404.28;;;5.08;84.18
77227;BME280;66234;47.642;19.144;2023-02-22T06:13:56;100408.88;;;5.30;83.40
77227;BME280;66234;47.642;19.144;2023-02-22T06:16:59;100400.69;;;5.48;82.81
77227;BME280;66234;47.642;19.144;2023-02-22T06:20:02;100400.66;;;5.56;83.00
77227;BME280;66234;47.642;19.144;2023-02-22T06:23:05;100402.97;;;5.59;83.13
77227;BME280;66234;47.642;19.144;2023-02-22T06:26:08;100404.66;;;5.60;83.30
77227;BME280;66234;47.642;19.144;2023-02-22T06:29:10;100414.41;;;5.67;83.20
77227;BME280;66234;47.642;19.144;2023-02-22T06:32:13;100406.09;;;5.70;82.99
77227;BME280;66234;47.642;19.144;2023-02-22T06:35:21;100415.84;;;5.78;83.25
77227;BME280;66234;47.642;19.144;2023-02-22T06:38:25;100413.84;;;5.88;83.26
77227;BME280;66234;47.642;19.144;2023-02-22T06:41:29;100416.00;;;5.92;82.70
77227;BME280;66234;47.642;19.144;2023-02-22T06:44:32;100418.47;;;5.94;82.88
77227;BME280;66234;47.642;19.144;2023-02-22T06:47:38;100414.63;;;5.96;83.36
77227;BME280;66234;47.642;19.144;2023-02-22T06:50:42;100415.72;;;6.10;83.31
77227;BME280;66234;47.642;19.144;2023-02-22T06:53:45;100407.34;;;6.21;83.23
77227;BME280;66234;47.642;19.144;2023-02-22T06:56:50;100407.84;;;6.24;83.36
77227;BME280;66234;47.642;19.144;2023-02-22T06:59:53;100413.47;;;6.29;83.30
77227;BME280;66234;47.642;19.144;2023-02-22T07:02:56;100420.91;;;6.34;83.44
77227;BME280;66234;47.642;19.144;2023-02-22T07:05:59;100423.16;;;6.45;83.06
77227;BME280;66234;47.642;19.144;2023-02-22T07:09:02;100426.03;;;6.58;82.65
77227;BME280;66234;47.642;19.144;2023-02-22T07:12:05;100426.50;;;6.61;82.85
77227;BME280;66234;47.642;19.144;2023-02-22T07:15:09;100427.63;;;6.67;82.31
77227;BME280;66234;47.642;19.144;2023-02-22T07:18:15;100426.66;;;6.83;82.51
77227;BME280;66234;47.642;19.144;2023-02-22T07:21:18;100420.84;;;7.02;82.02
77227;BME280;66234;47.642;19.144;2023-02-22T07:24:21;100424.19;;;7.04;81.82
77227;BME280;66234;47.642;19.144;2023-02-22T07:27:24;100422.25;;;7.12;81.61
77227;BME280;66234;47.642;19.144;2023-02-22T07:30:29;100413.84;;;7.23;81.18
77227;BME280;66234;47.642;19.144;2023-02-22T07:33:34;100415.97;;;7.42;80.78
77227;BME280;66234;47.642;19.144;2023-02-22T07:36:40;100419.47;;;7.57;79.98
77227;BME280;66234;47.642;19.144;2023-02-22T07:39:43;100418.16;;;7.68;79.96
77227;BME280;66234;47.642;19.144;2023-02-22T07:43:13;100434.56;;;7.86;79.11
77227;BME280;66234;47.642;19.144;2023-02-22T07:46:16;100431.00;;;7.93;78.55
77227;BME280;66234;47.642;19.144;2023-02-22T07:49:20;100434.75;;;7.99;78.87
77227;BME280;66234;47.642;19.144;2023-02-22T07:52:24;100428.50;;;8.06;78.21
77227;BME280;66234;47.642;19.144;2023-02-22T07:55:28;100433.25;;;8.11;78.36
77227;BME280;66234;47.642;19.144;2023-02-22T07:58:31;100440.50;;;8.31;77.83
77227;BME280;66234;47.642;19.144;2023-02-22T08:01:34;100435.50;;;8.43;77.37
77227;BME280;66234;47.642;19.144;2023-02-22T08:04:39;100434.31;;;8.46;77.67
77227;BME280;66234;47.642;19.144;2023-02-22T08:07:41;100433.38;;;8.53;76.98
77227;BME280;66234;47.642;19.144;2023-02-22T08:10:44;100433.75;;;8.71;76.43
77227;BME280;66234;47.642;19.144;2023-02-22T08:13:47;100436.28;;;8.79;76.81
77227;BME280;66234;47.642;19.144;2023-02-22T08:16:50;100424.97;;;8.98;75.75
77227;BME280;66234;47.642;19.144;2023-02-22T08:19:56;100429.94;;;9.29;74.95
77227;BME280;66234;47.642;19.144;2023-02-22T08:22:59;100419.72;;;9.32;74.83
77227;BME280;66234;47.642;19.144;2023-02-22T08:26:08;100425.50;;;9.36;74.72
77227;BME280;66234;47.642;19.144;2023-02-22T08:29:17;100435.19;;;9.43;73.63
77227;BME280;66234;47.642;19.144;2023-02-22T08:32:21;100437.06;;;9.49;73.53
77227;BME280;66234;47.642;19.144;2023-02-22T08:35:25;100436.13;;;9.63;73.00
77227;BME280;66234;47.642;19.144;2023-02-22T08:38:30;100434.78;;;9.80;71.87
77227;BME280;66234;47.642;19.144;2023-02-22T08:41:34;100435.88;;;9.92;71.41
77227;BME280;66234;47.642;19.144;2023-02-22T08:44:38;100433.44;;;10.04;71.15
77227;BME280;66234;47.642;19.144;2023-02-22T08:47:42;100435.19;;;10.18;70.43
77227;BME280;66234;47.642;19.144;2023-02-22T08:50:45;100433.97;;;10.21;69.65
77227;BME280;66234;47.642;19.144;2023-02-22T08:53:48;100436.47;;;10.29;70.17
77227;BME280;66234;47.642;19.144;2023-02-22T08:56:52;100430.53;;;10.40;69.30
77227;BME280;66234;47.642;19.144;2023-02-22T08:59:56;100425.44;;;10.51;69.33
77227;BME280;66234;47.642;19.144;2023-02-22T09:03:04;100426.88;;;10.60;68.57
77227;BME280;66234;47.642;19.144;2023-02-22T09:06:08;100425.47;;;10.64;68.50
77227;BME280;66234;47.642;19.144;2023-02-22T09:15:09;100425.91;;;11.07;66.85
77227;BME280;66234;47.642;19.144;2023-02-22T09:18:13;100426.94;;;11.25;66.57
77227;BME280;66234;47.642;19.144;2023-02-22T09:21:16;100430.00;;;11.35;66.25
77227;BME280;66234;47.642;19.144;2023-02-22T09:24:20;100429.56;;;11.51;64.82
77227;BME280;66234;47.642;19.144;2023-02-22T09:27:25;100431.63;;;11.69;65.00
77227;BME280;66234;47.642;19.144;2023-02-22T09:30:32;100420.28;;;11.80;64.31
77227;BME280;66234;47.642;19.144;2023-02-22T09:33:39;100425.34;;;12.01;63.59
77227;BME280;66234;47.642;19.144;2023-02-22T09:36:43;100420.97;;;12.13;63.17
77227;BME280;66234;47.642;19.144;2023-02-22T09:39:48;100423.19;;;12.23;63.63
77227;BME280;66234;47.642;19.144;2023-02-22T09:49:27;100416.22;;;13.15;59.28
77227;BME280;66234;47.642;19.144;2023-02-22T09:52:39;100416.72;;;13.30;58.61
77227;BME280;66234;47.642;19.144;2023-02-22T09:55:47;100417.41;;;13.44;57.92
77227;BME280;66234;47.642;19.144;2023-02-22T09:58:54;100414.38;;;13.58;57.78
77227;BME280;66234;47.642;19.144;2023-02-22T10:02:13;100410.63;;;13.59;56.18
77227;BME280;66234;47.642;19.144;2023-02-22T10:05:25;100411.03;;;13.38;56.87
77227;BME280;66234;47.642;19.144;2023-02-22T10:08:32;100416.81;;;13.17;57.59
77227;BME280;66234;47.642;19.144;2023-02-22T10:11:55;100412.97;;;13.31;58.05
77227;BME280;66234;47.642;19.144;2023-02-22T10:25:02;100409.00;;;13.94;55.18
77227;BME280;66234;47.642;19.144;2023-02-22T10:28:17;100406.16;;;13.89;55.29
77227;BME280;66234;47.642;19.144;2023-02-22T10:31:27;100400.25;;;13.99;54.81
77227;BME280;66234;47.642;19.144;2023-02-22T10:34:42;100396.81;;;13.74;55.69
77227;BME280;66234;47.642;19.144;2023-02-22T10:37:45;100392.22;;;13.81;55.90
77227;BME280;66234;47.642;19.144;2023-02-22T10:40:55;100387.88;;;13.98;55.83
77227;BME280;66234;47.642;19.144;2023-02-22T10:44:00;100388.47;;;13.82;56.71
77227;BME280;66234;47.642;19.144;2023-02-22T10:47:09;100385.88;;;13.93;56.14
77227;BME280;66234;47.642;19.144;2023-02-22T10:50:13;100381.63;;;13.86;54.89
77227;BME280;66234;47.642;19.144;2023-02-22T10:53:16;100383.47;;;13.85;54.93
77227;BME280;66234;47.642;19.144;2023-02-22T10:56:24;100375.50;;;13.97;55.30
77227;BME280;66234;47.642;19.144;2023-02-22T10:59:33;100374.13;;;13.88;55.08
77227;BME280;66234;47.642;19.144;2023-02-22T11:02:36;100379.59;;;13.99;54.64
77227;BME280;66234;47.642;19.144;2023-02-22T11:05:39;100377.50;;;13.83;55.39
77227;BME280;66234;47.642;19.144;2023-02-22T11:08:42;100367.19;;;13.62;55.84
77227;BME280;66234;47.642;19.144;2023-02-22T11:11:47;100359.38;;;13.61;56.68
77227;BME280;66234;47.642;19.144;2023-02-22T11:14:50;100363.97;;;13.17;57.01
77227;BME280;66234;47.642;19.144;2023-02-22T11:17:55;100361.56;;;13.27;57.04
77227;BME280;66234;47.642;19.144;2023-02-22T11:21:01;100360.00;;;13.20;57.48
77227;BME280;66234;47.642;19.144;2023-02-22T11:24:10;100355.56;;;13.07;58.23
77227;BME280;66234;47.642;19.144;2023-02-22T11:27:34;100356.22;;;13.03;57.98
77227;BME280;66234;47.642;19.144;2023-02-22T11:30:41;100356.00;;;13.04;58.06
77227;BME280;66234;47.642;19.144;2023-02-22T11:33:55;100357.59;;;13.12;57.61
77227;BME280;66234;47.642;19.144;2023-02-22T11:37:22;100351.53;;;12.92;58.31
77227;BME280;66234;47.642;19.144;2023-02-22T11:40:30;100356.69;;;12.93;58.27
77227;BME280;66234;47.642;19.144;2023-02-22T11:43:36;100350.53;;;12.93;58.65
77227;BME280;66234;47.642;19.144;2023-02-22T11:46:40;100353.94;;;13.06;58.40
77227;BME280;66234;47.642;19.144;2023-02-22T11:49:45;100351.72;;;12.97;58.20
77227;BME280;66234;47.642;19.144;2023-02-22T11:52:56;100350.25;;;13.01;58.00
77227;BME280;66234;47.642;19.144;2023-02-22T11:59:33;100348.22;;;13.21;57.55
77227;BME280;66234;47.642;19.144;2023-02-22T12:09:58;100341.97;;;13.45;56.88
77227;BME280;66234;47.642;19.144;2023-02-22T12:17:09;100342.81;;;13.46;57.17
77227;BME280;66234;47.642;19.144;2023-02-22T12:20:21;100335.25;;;13.36;56.61
77227;BME280;66234;47.642;19.144;2023-02-22T12:23:46;100336.44;;;13.40;56.98
77227;BME280;66234;47.642;19.144;2023-02-22T12:27:00;100335.84;;;13.38;56.79
77227;BME280;66234;47.642;19.144;2023-02-22T12:30:21;100328.00;;;13.37;57.42
77227;BME280;66234;47.642;19.144;2023-02-22T12:33:29;100329.59;;;13.44;56.85
77227;BME280;66234;47.642;19.144;2023-02-22T12:36:38;100325.63;;;13.29;56.83
77227;BME280;66234;47.642;19.144;2023-02-22T12:49:30;100318.16;;;13.31;57.88
77227;BME280;66234;47.642;19.144;2023-02-22T12:52:45;100308.75;;;13.21;58.11
77227;BME280;66234;47.642;19.144;2023-02-22T12:55:51;100313.50;;;13.01;58.65
77227;BME280;66234;47.642;19.144;2023-02-22T12:58:59;100307.50;;;12.99;59.05
77227;BME280;66234;47.642;19.144;2023-02-22T13:02:21;100308.34;;;13.00;58.73
77227;BME280;66234;47.642;19.144;2023-02-22T13:05:37;100307.94;;;12.96;58.99
77227;BME280;66234;47.642;19.144;2023-02-22T13:11:55;100304.47;;;12.96;59.10
77227;BME280;66234;47.642;19.144;2023-02-22T13:18:25;100300.31;;;13.00;59.18
77227;BME280;66234;47.642;19.144;2023-02-22T13:24:45;100295.13;;;12.98;58.97
77227;BME280;66234;47.642;19.144;2023-02-22T13:27:58;100297.13;;;13.09;58.80
77227;BME280;66234;47.642;19.144;2023-02-22T13:54:06;100301.53;;;13.40;58.06
77227;BME280;66234;47.642;19.144;2023-02-22T13:57:19;100302.75;;;13.44;59.00
77227;BME280;66234;47.642;19.144;2023-02-22T14:00:45;100309.22;;;13.37;57.49
77227;BME280;66234;47.642;19.144;2023-02-22T14:03:48;100304.81;;;13.24;58.91
77227;BME280;66234;47.642;19.144;2023-02-22T14:06:52;100304.44;;;13.20;58.68
77227;BME280;66234;47.642;19.144;2023-02-22T14:09:56;100303.81;;;13.00;59.03
77227;BME280;66234;47.642;19.144;2023-02-22T14:13:05;100299.16;;;12.89;59.30
77227;BME280;66234;47.642;19.144;2023-02-22T14:19:19;100296.63;;;12.94;61.00
77227;BME280;66234;47.642;19.144;2023-02-22T14:22:27;100299.16;;;12.89;59.58
77227;BME280;66234;47.642;19.144;2023-02-22T14:25:37;100300.84;;;12.84;60.09
77227;BME280;66234;47.642;19.144;2023-02-22T14:32:12;100304.47;;;12.71;59.59
77227;BME280;66234;47.642;19.144;2023-02-22T14:35:17;100309.22;;;12.69;59.49
77227;BME280;66234;47.642;19.144;2023-02-22T14:38:32;100304.13;;;12.61;60.02
77227;BME280;66234;47.642;19.144;2023-02-22T14:41:37;100302.16;;;12.50;60.97
77227;BME280;66234;47.642;19.144;2023-02-22T14:48:11;100312.88;;;12.50;59.89
77227;BME280;66234;47.642;19.144;2023-02-22T14:51:22;100306.94;;;12.48;59.72
77227;BME280;66234;47.642;19.144;2023-02-22T14:54:35;100307.19;;;12.40;60.62
77227;BME280;66234;47.642;19.144;2023-02-22T14:57:57;100307.63;;;12.37;60.79
77227;BME280;66234;47.642;19.144;2023-02-22T15:04:23;100306.41;;;12.33;61.50
77227;BME280;66234;47.642;19.144;2023-02-22T15:07:30;100304.72;;;12.39;61.75
77227;BME280;66234;47.642;19.144;2023-02-22T15:10:44;100299.06;;;12.47;61.16
77227;BME280;66234;47.642;19.144;2023-02-22T15:13:50;100298.34;;;12.33;62.31
77227;BME280;66234;47.642;19.144;2023-02-22T15:16:55;100300.88;;;12.28;62.39
77227;BME280;66234;47.642;19.144;2023-02-22T15:20:05;100297.81;;;12.25;61.99
77227;BME280;66234;47.642;19.144;2023-02-22T15:23:14;100291.88;;;12.16;62.03
77227;BME280;66234;47.642;19.144;2023-02-22T15:26:32;100298.56;;;12.01;62.23
77227;BME280;66234;47.642;19.144;2023-02-22T15:29:41;100297.97;;;11.99;62.22
77227;BME280;66234;47.642;19.144;2023-02-22T15:32:45;100301.72;;;11.91;62.43
77227;BME280;66234;47.642;19.144;2023-02-22T15:36:13;100293.09;;;11.89;61.93
77227;BME280;66234;47.642;19.144;2023-02-22T15:39:27;100293.31;;;11.81;61.88
77227;BME280;66234;47.642;19.144;2023-02-22T15:42:30;100289.44;;;11.77;62.54
77227;BME280;66234;47.642;19.144;2023-02-22T15:45:33;100297.91;;;11.74;62.62
77227;BME280;66234;47.642;19.144;2023-02-22T15:48:36;100295.69;;;11.65;62.39
77227;BME280;66234;47.642;19.144;2023-02-22T15:51:42;100295.25;;;11.54;62.73
77227;BME280;66234;47.642;19.144;2023-02-22T15:54:51;100292.00;;;11.46;62.91
77227;BME280;66234;47.642;19.144;2023-02-22T15:57:55;100291.41;;;11.37;62.39
77227;BME280;66234;47.642;19.144;2023-02-22T16:01:01;100290.00;;;11.28;62.14
77227;BME280;66234;47.642;19.144;2023-02-22T16:04:05;100288.38;;;11.21;61.91
77227;BME280;66234;47.642;19.144;2023-02-22T16:07:14;100289.66;;;11.12;61.84
77227;BME280;66234;47.642;19.144;2023-02-22T16:10:27;100290.44;;;11.12;60.66
77227;BME280;66234;47.642;19.144;2023-02-22T16:13:34;100288.00;;;11.04;61.36
77227;BME280;66234;47.642;19.144;2023-02-22T16:16:37;100289.66;;;10.99;62.56
77227;BME280;66234;47.642;19.144;2023-02-22T16:19:44;100294.00;;;10.93;62.03
77227;BME280;66234;47.642;19.144;2023-02-22T16:22:48;100292.53;;;10.91;62.46
77227;BME280;66234;47.642;19.144;2023-02-22T16:26:25;100299.97;;;10.82;62.49
77227;BME280;66234;47.642;19.144;2023-02-22T16:29:28;100304.69;;;10.80;63.41
77227;BME280;66234;47.642;19.144;2023-02-22T16:32:31;100303.91;;;10.73;63.10
77227;BME280;66234;47.642;19.144;2023-02-22T16:35:33;100304.53;;;10.69;63.08
77227;BME280;66234;47.642;19.144;2023-02-22T16:38:37;100305.31;;;10.63;63.39
77227;BME280;66234;47.642;19.144;2023-02-22T16:41:40;100306.34;;;10.62;62.75
77227;BME280;66234;47.642;19.144;2023-02-22T16:44:42;100313.53;;;10.61;62.94
77227;BME280;66234;47.642;19.144;2023-02-22T16:47:45;100315.41;;;10.61;61.68
77227;BME280;66234;47.642;19.144;2023-02-22T16:50:50;100315.84;;;10.64;61.48
77227;BME280;66234;47.642;19.144;2023-02-22T16:53:54;100316.41;;;10.60;61.41
77227;BME280;66234;47.642;19.144;2023-02-22T16:56:57;100321.16;;;10.51;61.63
77227;BME280;66234;47.642;19.144;2023-02-22T17:00:10;100320.31;;;10.44;61.67
77227;BME280;66234;47.642;19.144;2023-02-22T17:03:19;100323.00;;;10.38;62.28
77227;BME280;66234;47.642;19.144;2023-02-22T17:06:22;100324.44;;;10.34;62.25
77227;BME280;66234;47.642;19.144;2023-02-22T17:09:25;100319.69;;;10.23;61.94
77227;BME280;66234;47.642;19.144;2023-02-22T17:12:29;100321.94;;;10.13;62.41
77227;BME280;66234;47.642;19.144;2023-02-22T17:15:34;100322.91;;;10.05;62.38
77227;BME280;66234;47.642;19.144;2023-02-22T17:18:37;100315.09;;;10.03;61.68
77227;BME280;66234;47.642;19.144;2023-02-22T17:21:40;100318.78;;;9.96;62.24
77227;BME280;66234;47.642;19.144;2023-02-22T17:24:43;100326.78;;;9.89;62.32
77227;BME280;66234;47.642;19.144;2023-02-22T17:27:46;100325.31;;;9.80;62.81
77227;BME280;66234;47.642;19.144;2023-02-22T17:30:50;100330.81;;;9.72;63.78
77227;BME280;66234;47.642;19.144;2023-02-22T17:33:56;100322.00;;;9.78;62.69
77227;BME280;66234;47.642;19.144;2023-02-22T17:37:03;100324.06;;;9.83;62.62
77227;BME280;66234;47.642;19.144;2023-02-22T17:40:07;100328.38;;;9.77;62.79
77227;BME280;66234;47.642;19.144;2023-02-22T17:43:10;100330.22;;;9.77;62.09
77227;BME280;66234;47.642;19.144;2023-02-22T17:46:12;100332.22;;;9.62;63.12
77227;BME280;66234;47.642;19.144;2023-02-22T17:49:15;100331.16;;;9.56;62.82
77227;BME280;66234;47.642;19.144;2023-02-22T17:52:18;100333.38;;;9.46;63.62
77227;BME280;66234;47.642;19.144;2023-02-22T17:55:21;100337.00;;;9.32;65.18
77227;BME280;66234;47.642;19.144;2023-02-22T17:58:24;100328.94;;;9.26;64.81
77227;BME280;66234;47.642;19.144;2023-02-22T18:01:32;100338.38;;;9.22;64.11
77227;BME280;66234;47.642;19.144;2023-02-22T18:04:35;100325.44;;;9.19;64.66
77227;BME280;66234;47.642;19.144;2023-02-22T18:07:38;100331.16;;;9.22;65.60
77227;BME280;66234;47.642;19.144;2023-02-22T18:10:42;100336.31;;;9.24;64.14
77227;BME280;66234;47.642;19.144;2023-02-22T18:13:46;100334.28;;;9.26;63.85